Johnsburg, Illinois
Current Conditions -  °F | °C
As of 7:55 AM on Monday 24 Nov 2014 (Local Time) from KUGN Reporting Station
Haze Haze  
Wind Chill: 46°   Ceiling: 300
Heat Index: 46°   Visibility: 4mi
Dew Point: 45°   Wind: 3mph
Humidity: 96%   Direction: 240°WSW
Pressure: 29.07"   Gusts: NA
Location:  42.338°N, 88.2857°W
Report Text: KUGN 241355Z 24003KT 4SM BR OVC003 08/07 A2907 RMK AO2 RAB16E47 SLP845 P0000 T00780072
Loading
Personal Weather Stations






























Interactive Weather Map New forecast layout! Learn more

10-Day Weather Forecast

Advertisements
Track Severe Weather on mobile